Time;durP1;ratioP1;P1;durP2;ratioP2;P2;SDS_P1;SDS_P2;PMS_P1;PMS_P2;Temp;Humidity;BMP_temperature;BMP_pressure;BME280_temperature;BME280_humidity;BME280_pressure;Samples;Min_cycle;Max_cycle;Signal;HPM_P1;HPM_P2
2023/02/21 02:15:06;;;;;;;67.00;10.20;;;1.80;1.00;;;;;;5071632;28;20277;-63
2023/02/21 02:17:42;;;;;;;70.10;11.02;;;1.60;1.00;;;;;;5045785;28;20208;-63
2023/02/21 02:20:38;;;;;;;68.65;11.25;;;1.60;1.00;;;;;;5071372;28;20208;-63
2023/02/21 02:23:30;;;;;;;72.13;12.38;;;1.50;1.00;;;;;;5071531;28;20222;-63
2023/02/21 02:26:20;;;;;;;70.90;11.75;;;1.50;1.00;;;;;;5071206;28;20607;-63
2023/02/21 02:29:03;;;;;;;68.85;10.43;;;1.50;1.00;;;;;;5071550;28;20208;-64
2023/02/21 02:31:52;;;;;;;70.15;11.40;;;1.50;1.00;;;;;;5071605;28;20582;-64
2023/02/21 02:34:36;;;;;;;74.88;11.60;;;1.70;1.00;;;;;;5071315;28;20215;-64
2023/02/21 02:37:12;;;;;;;66.53;10.05;;;1.60;1.00;;;;;;5071323;28;20695;-63
2023/02/21 02:39:46;;;;;;;65.60;9.63;;;1.50;1.00;;;;;;5071052;28;20584;-64
2023/02/21 02:42:24;;;;;;;69.95;10.30;;;1.50;1.00;;;;;;5071473;28;20216;-64
2023/02/21 02:44:55;;;;;;;75.18;9.90;;;1.60;1.00;;;;;;5071362;28;20232;-63
2023/02/21 02:47:27;;;;;;;67.63;9.98;;;1.60;1.00;;;;;;5071538;28;20225;-63
2023/02/21 02:49:57;;;;;;;67.22;10.68;;;1.50;1.00;;;;;;5071298;28;20221;-63
2023/02/21 02:52:24;;;;;;;72.45;9.68;;;1.50;1.00;;;;;;5071597;28;20221;-64
2023/02/21 02:55:02;;;;;;;66.15;9.90;;;1.60;1.00;;;;;;5071688;28;20518;-63
2023/02/21 02:57:37;;;;;;;68.53;10.63;;;1.50;1.00;;;;;;5071224;28;20211;-63
2023/02/21 03:00:05;;;;;;;66.45;9.55;;;1.50;1.00;;;;;;5071034;28;20203;-63
2023/02/21 03:02:50;;;;;;;66.10;10.05;;;1.50;1.00;;;;;;5071768;28;20212;-71
2023/02/21 03:05:34;;;;;;;67.55;10.00;;;1.50;1.00;;;;;;5071967;28;20234;-64
2023/02/21 03:08:08;;;;;;;70.40;11.90;;;1.50;1.00;;;;;;5074325;28;20231;-64
2023/02/21 03:10:43;;;;;;;69.55;13.55;;;1.40;1.00;;;;;;5075243;28;20577;-64
2023/02/21 03:13:18;;;;;;;71.65;11.10;;;1.30;1.00;;;;;;5075239;28;20234;-64
2023/02/21 03:15:50;;;;;;;66.57;10.43;;;1.30;1.00;;;;;;5074879;28;20227;-64
2023/02/21 03:18:21;;;;;;;70.03;9.98;;;1.20;1.00;;;;;;5074585;28;20577;-64
2023/02/21 03:20:54;;;;;;;66.13;10.50;;;1.10;1.00;;;;;;5074637;28;20203;-64
2023/02/21 03:23:23;;;;;;;73.78;10.93;;;1.20;1.00;;;;;;5074680;28;20210;-64
2023/02/21 03:25:52;;;;;;;65.45;8.82;;;1.30;1.00;;;;;;5074600;28;20722;-64
2023/02/21 03:28:20;;;;;;;73.50;9.73;;;1.20;1.00;;;;;;5074291;28;20230;-64
2023/02/21 03:30:52;;;;;;;72.25;10.45;;;1.20;1.00;;;;;;5073904;28;20207;-64
2023/02/21 03:33:18;;;;;;;69.20;11.00;;;1.10;1.00;;;;;;5074339;28;20217;-64
2023/02/21 03:35:45;;;;;;;65.78;10.25;;;1.10;1.00;;;;;;5074300;28;20222;-64
2023/02/21 03:38:13;;;;;;;70.20;9.60;;;1.10;1.00;;;;;;5074287;28;20205;-64
2023/02/21 03:40:40;;;;;;;66.85;10.15;;;1.10;1.00;;;;;;5074382;28;20205;-64
2023/02/21 03:43:07;;;;;;;67.90;10.40;;;1.10;1.00;;;;;;5074248;28;20691;-64
2023/02/21 03:45:34;;;;;;;67.45;11.10;;;1.20;1.00;;;;;;5074407;28;20230;-64
2023/02/21 03:48:01;;;;;;;68.82;10.52;;;1.10;1.00;;;;;;5074311;28;20554;-64
2023/02/21 03:50:28;;;;;;;68.90;10.10;;;1.00;1.00;;;;;;5074035;28;20209;-64
2023/02/21 03:52:55;;;;;;;65.20;9.35;;;1.00;1.00;;;;;;5074411;28;20206;-64
2023/02/21 03:55:23;;;;;;;67.47;10.35;;;1.00;1.00;;;;;;5074123;28;20227;-64
2023/02/21 03:57:50;;;;;;;67.35;11.13;;;1.00;1.00;;;;;;5073997;28;20696;-64
2023/02/21 04:00:17;;;;;;;67.28;9.50;;;1.00;1.00;;;;;;5073697;28;20230;-64
2023/02/21 04:02:44;;;;;;;65.30;9.88;;;1.10;1.00;;;;;;5074144;28;20571;-64
2023/02/21 04:05:11;;;;;;;68.38;9.82;;;1.00;1.00;;;;;;5073780;28;20239;-64
2023/02/21 04:07:38;;;;;;;68.80;10.10;;;0.90;1.00;;;;;;5073875;28;20226;-64
2023/02/21 04:10:05;;;;;;;66.18;10.88;;;1.00;1.00;;;;;;5073437;28;20207;-64
2023/02/21 04:12:33;;;;;;;65.68;10.65;;;1.00;1.00;;;;;;5073739;28;20201;-64
2023/02/21 04:15:00;;;;;;;66.18;10.35;;;1.10;1.00;;;;;;5073931;28;20735;-64
2023/02/21 04:17:27;;;;;;;67.95;10.05;;;1.10;1.00;;;;;;5073792;28;20201;-64
2023/02/21 04:19:54;;;;;;;69.43;10.00;;;1.10;1.00;;;;;;5072418;28;20592;-64
2023/02/21 04:22:21;;;;;;;68.07;9.73;;;1.10;1.00;;;;;;5073934;28;20216;-64
2023/02/21 04:24:48;;;;;;;66.18;9.48;;;1.00;1.00;;;;;;5073684;28;20265;-64
2023/02/21 04:27:15;;;;;;;65.72;9.32;;;1.00;1.00;;;;;;5073824;28;20229;-64
2023/02/21 04:29:43;;;;;;;66.80;10.02;;;0.90;1.00;;;;;;5073458;28;20202;-64
2023/02/21 04:32:11;;;;;;;67.07;9.65;;;1.00;1.00;;;;;;5073295;28;20202;-64
2023/02/21 04:34:37;;;;;;;68.50;9.10;;;1.00;1.00;;;;;;5073203;28;20711;-64
2023/02/21 04:37:04;;;;;;;64.90;9.02;;;1.00;1.00;;;;;;5073122;28;20616;-64
2023/02/21 04:39:31;;;;;;;67.55;10.65;;;0.90;1.00;;;;;;5072621;28;20314;-64
2023/02/21 04:41:58;;;;;;;66.20;10.63;;;0.80;1.00;;;;;;5073241;28;20207;-64
2023/02/21 04:44:25;;;;;;;68.00;9.18;;;0.80;1.00;;;;;;5072860;28;20312;-64
2023/02/21 04:46:53;;;;;;;67.75;10.43;;;0.80;1.00;;;;;;5072745;28;20214;-64
2023/02/21 04:49:19;;;;;;;65.80;11.13;;;0.70;1.00;;;;;;5072737;28;20223;-64
2023/02/21 04:51:46;;;;;;;64.18;9.25;;;0.80;1.00;;;;;;5073056;28;20204;-64
2023/02/21 04:54:13;;;;;;;65.72;9.90;;;0.90;1.00;;;;;;5073063;28;20205;-65
2023/02/21 04:56:40;;;;;;;64.05;9.35;;;0.80;1.00;;;;;;5072937;28;20208;-64
2023/02/21 04:59:06;;;;;;;66.10;9.60;;;0.70;1.00;;;;;;5072626;28;20220;-65
2023/02/21 05:01:33;;;;;;;67.45;9.57;;;0.80;1.00;;;;;;5072719;28;20215;-64
2023/02/21 05:04:02;;;;;;;65.70;8.70;;;0.90;1.00;;;;;;5072776;28;20209;-64
2023/02/21 05:06:30;;;;;;;66.15;8.52;;;1.00;1.00;;;;;;5072407;28;20213;-64
2023/02/21 05:08:58;;;;;;;66.40;9.40;;;1.00;1.00;;;;;;5072367;28;20237;-64
2023/02/21 05:11:25;;;;;;;68.15;9.43;;;0.90;1.00;;;;;;5072791;28;20580;-65
2023/02/21 05:13:52;;;;;;;65.75;10.15;;;0.80;1.00;;;;;;5072463;28;20210;-64
2023/02/21 05:16:19;;;;;;;67.00;9.80;;;0.80;1.00;;;;;;5072645;28;20229;-64
2023/02/21 05:18:48;;;;;;;64.22;9.43;;;0.80;1.00;;;;;;5071969;28;20208;-64
2023/02/21 05:21:18;;;;;;;65.20;9.20;;;0.90;1.00;;;;;;5072519;28;20232;-64
2023/02/21 05:23:54;;;;;;;66.60;9.57;;;1.00;1.00;;;;;;5072491;28;20222;-64
2023/02/21 05:26:24;;;;;;;70.50;10.20;;;0.90;1.00;;;;;;5072497;28;20225;-64
2023/02/21 05:28:51;;;;;;;65.85;8.90;;;0.80;1.00;;;;;;5072289;28;20493;-64
2023/02/21 05:31:18;;;;;;;67.78;8.95;;;0.90;1.00;;;;;;5072298;28;20207;-64
2023/02/21 05:33:45;;;;;;;64.03;9.30;;;0.90;1.00;;;;;;5072169;28;20212;-64
2023/02/21 05:36:12;;;;;;;66.82;9.45;;;0.90;1.00;;;;;;5072070;28;20713;-64
2023/02/21 05:38:47;;;;;;;67.40;9.98;;;0.90;1.00;;;;;;5072010;28;20236;-65
2023/02/21 05:41:15;;;;;;;68.40;9.07;;;0.90;1.00;;;;;;5072610;28;20248;-64
2023/02/21 05:43:44;;;;;;;66.70;9.35;;;0.90;1.00;;;;;;5072286;28;20692;-64
2023/02/21 05:46:19;;;;;;;66.25;9.23;;;1.00;1.00;;;;;;5072477;28;20573;-64
2023/02/21 05:48:45;;;;;;;66.28;9.55;;;0.90;1.00;;;;;;5071628;28;20763;-64
2023/02/21 05:51:12;;;;;;;67.60;9.38;;;0.80;1.00;;;;;;5072019;28;20208;-64
2023/02/21 05:53:39;;;;;;;64.88;9.00;;;0.90;1.00;;;;;;5072027;28;20201;-64
2023/02/21 05:56:08;;;;;;;68.00;10.93;;;0.90;1.00;;;;;;5071909;28;20320;-64
2023/02/21 05:58:34;;;;;;;70.03;13.20;;;0.90;1.00;;;;;;5071409;28;20241;-64
2023/02/21 06:01:01;;;;;;;70.18;13.40;;;0.90;1.00;;;;;;5071921;28;20579;-64
2023/02/21 06:03:28;;;;;;;69.72;13.10;;;0.90;1.00;;;;;;5071973;28;20216;-64
2023/02/21 06:05:55;;;;;;;68.10;13.63;;;0.90;1.00;;;;;;5071685;28;20263;-64
2023/02/21 06:08:22;;;;;;;69.25;13.77;;;0.90;1.00;;;;;;5071474;28;20229;-64
2023/02/21 06:10:48;;;;;;;70.05;13.43;;;0.90;1.00;;;;;;5071413;28;20202;-64
2023/02/21 06:13:16;;;;;;;76.03;14.90;;;0.80;1.00;;;;;;5071585;28;20207;-64
2023/02/21 06:15:43;;;;;;;68.70;13.65;;;0.80;1.00;;;;;;5072006;28;20226;-64
2023/02/21 06:18:13;;;;;;;71.20;13.52;;;0.90;1.00;;;;;;5071607;28;20197;-64
2023/02/21 06:20:40;;;;;;;76.32;14.88;;;0.80;1.00;;;;;;5071273;28;20209;-64
2023/02/21 06:23:07;;;;;;;73.78;14.18;;;0.90;1.00;;;;;;5071711;28;20704;-64
2023/02/21 06:25:33;;;;;;;72.22;14.00;;;0.90;1.00;;;;;;5071317;28;20231;-64
2023/02/21 06:28:00;;;;;;;72.28;13.95;;;1.00;1.00;;;;;;5071226;28;20221;-64
2023/02/21 06:30:28;;;;;;;72.50;13.85;;;1.00;1.00;;;;;;5071268;28;20590;-64
2023/02/21 06:32:55;;;;;;;79.57;14.10;;;1.00;1.00;;;;;;5071581;28;20204;-65
2023/02/21 06:35:22;;;;;;;74.28;12.70;;;1.00;1.00;;;;;;5071299;28;20274;-65
2023/02/21 06:37:50;;;;;;;69.93;12.40;;;0.90;1.00;;;;;;5071444;28;20231;-65
2023/02/21 06:40:17;;;;;;;73.55;13.82;;;0.90;1.00;;;;;;5070942;28;20210;-65
2023/02/21 06:42:44;;;;;;;70.13;13.40;;;0.90;1.00;;;;;;5074331;28;20621;-64
2023/02/21 06:45:10;;;;;;;73.40;14.45;;;0.90;1.00;;;;;;5075260;28;20601;-64
2023/02/21 06:47:39;;;;;;;71.03;13.75;;;0.90;1.00;;;;;;5075159;28;20206;-64
2023/02/21 06:50:06;;;;;;;70.20;12.93;;;0.90;1.00;;;;;;5074864;28;20211;-64
2023/02/21 06:52:33;;;;;;;73.32;13.68;;;1.00;1.00;;;;;;5075406;28;20210;-64
2023/02/21 06:54:59;;;;;;;70.00;13.65;;;1.00;1.00;;;;;;5074710;28;20236;-64
2023/02/21 06:57:26;;;;;;;69.53;12.80;;;1.00;1.00;;;;;;5075286;28;20202;-64
2023/02/21 06:59:53;;;;;;;74.22;13.70;;;1.10;1.00;;;;;;5074601;28;20212;-65
2023/02/21 07:02:20;;;;;;;67.95;12.45;;;1.20;1.00;;;;;;5074997;28;20218;-65
2023/02/21 07:04:49;;;;;;;71.65;12.95;;;1.20;1.00;;;;;;5074769;28;20226;-65
2023/02/21 07:07:16;;;;;;;69.25;11.82;;;1.20;1.00;;;;;;5074627;28;20211;-64
2023/02/21 07:09:43;;;;;;;67.07;12.20;;;1.20;1.00;;;;;;5074330;28;20233;-64
2023/02/21 07:12:10;;;;;;;68.90;11.77;;;1.20;1.00;;;;;;5074800;28;20208;-64
2023/02/21 07:14:36;;;;;;;76.00;15.25;;;1.20;1.00;;;;;;5074466;28;20228;-64
2023/02/21 07:17:03;;;;;;;71.82;12.80;;;1.20;1.00;;;;;;5074652;28;20202;-64
2023/02/21 07:19:30;;;;;;;72.50;12.30;;;1.30;1.00;;;;;;5074127;28;20207;-64
2023/02/21 07:21:58;;;;;;;69.47;11.48;;;1.40;1.00;;;;;;5074335;28;20219;-64
2023/02/21 07:24:25;;;;;;;67.05;10.40;;;1.50;1.00;;;;;;5074273;28;20233;-64
2023/02/21 07:26:52;;;;;;;69.95;10.50;;;1.60;1.00;;;;;;5074290;28;20686;-64
2023/02/21 07:29:18;;;;;;;72.07;10.75;;;1.60;1.00;;;;;;5073864;28;20227;-64
2023/02/21 07:31:45;;;;;;;70.85;11.10;;;1.70;1.00;;;;;;5074349;28;20210;-64
2023/02/21 07:34:13;;;;;;;65.22;10.35;;;1.70;1.00;;;;;;5074182;28;20209;-64
2023/02/21 07:36:40;;;;;;;67.32;10.68;;;1.80;1.00;;;;;;5074476;28;20281;-64
2023/02/21 07:39:08;;;;;;;69.78;10.27;;;1.90;1.00;;;;;;5074052;28;20200;-63
2023/02/21 07:41:35;;;;;;;67.03;9.93;;;1.90;1.00;;;;;;5074415;28;20593;-64
2023/02/21 07:44:02;;;;;;;63.92;9.20;;;2.00;1.00;;;;;;5074365;28;20224;-64
2023/02/21 07:46:29;;;;;;;65.75;9.98;;;2.10;1.00;;;;;;5073553;28;20586;-64
2023/02/21 07:48:56;;;;;;;73.82;9.77;;;2.20;1.00;;;;;;5073938;28;20222;-64
2023/02/21 07:51:26;;;;;;;65.15;9.55;;;2.30;1.00;;;;;;5074247;28;20668;-64
2023/02/21 07:53:53;;;;;;;68.65;9.93;;;2.40;1.00;;;;;;5072890;28;20704;-64
2023/02/21 07:56:21;;;;;;;64.95;10.38;;;2.40;1.00;;;;;;5074027;28;20661;-64
2023/02/21 07:58:48;;;;;;;67.72;9.30;;;2.60;1.00;;;;;;5074129;28;20211;-64
2023/02/21 08:01:15;;;;;;;67.07;9.82;;;2.70;1.00;;;;;;5074423;28;20208;-64
2023/02/21 08:03:42;;;;;;;64.43;9.30;;;2.80;1.00;;;;;;5073938;28;20644;-64
2023/02/21 08:06:09;;;;;;;67.47;9.32;;;2.90;1.00;;;;;;5073827;28;20227;-64
2023/02/21 08:08:36;;;;;;;69.53;9.55;;;3.00;1.00;;;;;;5073309;28;20722;-64
2023/02/21 08:11:03;;;;;;;68.68;9.40;;;3.20;1.00;;;;;;5073849;28;20282;-64
2023/02/21 08:13:32;;;;;;;66.47;9.57;;;3.30;1.00;;;;;;5074036;28;20208;-64
2023/02/21 08:15:58;;;;;;;64.60;9.52;;;3.40;1.00;;;;;;5073585;28;20232;-64
2023/02/21 08:18:25;;;;;;;70.55;9.65;;;3.50;1.00;;;;;;5073356;28;20201;-62
2023/02/21 08:20:53;;;;;;;65.35;9.23;;;3.60;1.00;;;;;;5073425;28;20205;-61
2023/02/21 08:23:20;;;;;;;65.88;9.75;;;3.70;1.00;;;;;;5073437;28;20217;-62
2023/02/21 08:25:47;;;;;;;63.97;8.73;;;3.80;1.00;;;;;;5073111;28;20222;-62
2023/02/21 08:28:15;;;;;;;66.03;8.07;;;4.00;1.00;;;;;;5073027;28;20224;-62
2023/02/21 08:30:43;;;;;;;67.70;8.50;;;4.10;1.00;;;;;;5072681;28;20207;-62
2023/02/21 08:33:10;;;;;;;65.35;8.85;;;4.40;1.00;;;;;;5073147;28;20205;-62
2023/02/21 08:35:36;;;;;;;63.88;8.68;;;4.50;1.00;;;;;;5073058;28;20232;-62
2023/02/21 08:38:03;;;;;;;63.80;8.27;;;4.70;1.00;;;;;;5073031;28;20210;-62
2023/02/21 08:40:31;;;;;;;62.95;7.75;;;4.90;1.00;;;;;;5072548;28;20681;-62
2023/02/21 08:42:59;;;;;;;65.60;7.70;;;5.00;1.00;;;;;;5072852;28;20205;-62
2023/02/21 08:45:28;;;;;;;64.72;7.70;;;5.20;1.00;;;;;;5072546;28;20236;-62
2023/02/21 08:47:57;;;;;;;64.43;7.72;;;5.50;1.00;;;;;;5072812;28;20224;-62
2023/02/21 08:50:25;;;;;;;64.22;7.72;;;5.70;1.00;;;;;;5072430;28;20229;-62
2023/02/21 08:52:53;;;;;;;62.25;7.40;;;5.80;1.00;;;;;;5072631;28;20212;-62
2023/02/21 08:55:20;;;;;;;62.13;7.32;;;5.90;1.00;;;;;;5072545;28;20250;-63
2023/02/21 08:57:49;;;;;;;67.55;7.97;;;6.10;1.00;;;;;;5072345;28;20207;-62
2023/02/21 09:00:17;;;;;;;66.15;7.47;;;6.30;1.00;;;;;;5072418;28;20275;-63
2023/02/21 09:02:44;;;;;;;66.28;8.93;;;6.40;1.00;;;;;;5072608;28;20201;-63
2023/02/21 09:05:15;;;;;;;64.03;8.18;;;6.50;1.00;;;;;;5072212;28;20225;-63
2023/02/21 09:07:42;;;;;;;63.75;8.07;;;;;;;;;;5072427;28;20554;-63
2023/02/21 09:10:10;;;;;;;64.63;8.90;;;;;;;;;;5071732;28;20229;-64
2023/02/21 09:12:37;;;;;;;67.10;9.93;;;6.70;1.00;;;;;;5072486;28;20447;-63
2023/02/21 09:15:04;;;;;;;69.13;10.50;;;7.10;1.00;;;;;;5072465;28;20847;-63
2023/02/21 09:17:32;;;;;;;67.70;11.00;;;7.30;1.00;;;;;;5072454;28;20209;-64
2023/02/21 09:19:59;;;;;;;72.60;13.17;;;7.60;1.00;;;;;;5072287;28;20472;-64
2023/02/21 09:22:28;;;;;;;70.80;13.03;;;7.70;1.00;;;;;;5072026;28;20451;-65
2023/02/21 09:24:54;;;;;;;71.17;12.53;;;7.90;1.00;;;;;;5072152;28;20837;-64
2023/02/21 09:27:35;;;;;;;69.60;12.60;;;8.10;1.00;;;;;;5072339;28;20946;-64
2023/02/21 09:30:03;;;;;;;67.53;10.77;;;8.10;1.00;;;;;;5071815;28;20573;-64
2023/02/21 09:32:30;;;;;;;66.47;10.23;;;8.50;1.00;;;;;;5072329;28;20451;-64
2023/02/21 09:34:57;;;;;;;66.07;8.40;;;8.60;1.00;;;;;;5072320;28;20471;-64
2023/02/21 09:37:25;;;;;;;63.13;7.50;;;8.70;1.00;;;;;;5072280;28;20443;-64
2023/02/21 09:39:53;;;;;;;63.00;7.00;;;8.80;1.00;;;;;;5072189;28;20439;-64
2023/02/21 09:42:24;;;;;;;65.93;7.23;;;9.20;1.00;;;;;;5072091;28;20450;-64
2023/02/21 09:44:51;;;;;;;64.80;6.63;;;9.40;1.00;;;;;;5071833;28;20833;-64
2023/02/21 09:47:26;;;;;;;61.97;6.17;;;9.80;1.00;;;;;;5071956;28;20454;-64
2023/02/21 09:49:59;;;;;;;64.53;6.97;;;10.00;1.00;;;;;;5071928;28;20636;-64
2023/02/21 09:52:31;;;;;;;64.67;6.70;;;;;;;;;;5072257;28;20455;-64
2023/02/21 09:55:01;;;;;;;61.67;6.50;;;;;;;;;;5072091;28;20474;-62
2023/02/21 09:57:28;;;;;;;63.80;6.50;;;;;;;;;;5072280;28;20827;-63
2023/02/21 09:59:55;;;;;;;61.47;5.57;;;;;;;;;;5071653;28;20435;-63
2023/02/21 10:02:30;;;;;;;62.67;6.50;;;;;;;;;;5071838;28;20459;-65
2023/02/21 10:05:00;;;;;;;62.97;5.73;;;;;;;;;;5071861;28;20463;-66
2023/02/21 10:07:31;;;;;;;59.67;5.17;;;;;;;;;;5071612;28;20452;-63
2023/02/21 10:10:02;;;;;;;62.13;5.70;;;;;;;;;;5071317;28;20491;-63
2023/02/21 10:12:31;;;;;;;63.60;6.07;;;;;;;;;;5071515;28;20453;-63
2023/02/21 10:15:16;;;;;;;63.40;5.47;;;;;;;;;;5071390;28;20472;-63
2023/02/21 10:17:46;;;;;;;63.07;6.00;;;;;;;;;;5074395;28;20451;-63
2023/02/21 10:20:15;;;;;;;61.67;5.50;;;;;;;;;;5075385;28;20531;-64
2023/02/21 10:22:45;;;;;;;64.70;5.50;;;;;;;;;;5075245;28;20463;-63
2023/02/21 10:25:20;;;;;;;63.40;5.37;;;;;;;;;;5075552;28;20510;-64
2023/02/21 10:27:48;;;;;;;64.10;5.43;;;;;;;;;;5075654;28;20525;-64
2023/02/21 10:30:18;;;;;;;63.10;5.57;;;;;;;;;;5075048;28;20549;-64
2023/02/21 10:32:45;;;;;;;61.47;5.43;;;;;;;;;;5075340;28;20447;-64
2023/02/21 10:35:12;;;;;;;61.37;5.03;;;;;;;;;;5075409;28;20478;-65
2023/02/21 10:37:41;;;;;;;64.83;5.70;;;;;;;;;;5075181;28;20450;-65
2023/02/21 10:40:16;;;;;;;64.43;5.53;;;;;;;;;;5075099;28;20442;-65
2023/02/21 10:42:48;;;;;;;60.47;5.47;;;;;;;;;;5075286;28;20908;-65
2023/02/21 10:45:17;;;;;;;65.50;5.50;;;;;;;;;;5075127;28;20467;-65
2023/02/21 10:47:48;;;;;;;61.33;5.23;;;;;;;;;;5075088;28;20451;-65
2023/02/21 10:50:16;;;;;;;63.77;5.83;;;;;;;;;;5074532;28;20536;-65
2023/02/21 10:52:47;;;;;;;62.60;5.40;;;;;;;;;;5075402;28;20450;-65
2023/02/21 10:55:16;;;;;;;60.43;5.03;;;;;;;;;;5075058;28;20467;-65
2023/02/21 10:57:44;;;;;;;61.37;5.90;;;;;;;;;;5075002;28;20458;-65
2023/02/21 11:00:20;;;;;;;62.30;5.80;;;;;;;;;;5074533;28;20447;-65
2023/02/21 11:02:52;;;;;;;63.53;5.50;;;;;;;;;;5074686;28;20442;-65
2023/02/21 11:05:21;;;;;;;61.33;4.90;;;;;;;;;;5074577;28;20971;-65
2023/02/21 11:07:56;;;;;;;59.97;4.63;;;;;;;;;;5074865;28;20491;-65
2023/02/21 11:10:31;;;;;;;59.97;5.00;;;;;;;;;;5074353;28;20482;-63
2023/02/21 11:13:06;;;;;;;61.47;4.80;;;;;;;;;;5074586;28;20803;-63
2023/02/21 11:15:35;;;;;;;60.27;4.50;;;;;;;;;;5074619;28;20494;-63
2023/02/21 11:18:07;;;;;;;60.07;4.60;;;;;;;;;;5074434;28;20502;-63
2023/02/21 11:20:34;;;;;;;59.07;4.10;;;;;;;;;;5074342;28;20443;-63
2023/02/21 11:23:05;;;;;;;58.93;4.07;;;;;;;;;;5074310;28;20458;-65
2023/02/21 11:25:33;;;;;;;59.70;4.87;;;;;;;;;;5074243;28;20475;-66
2023/02/21 11:28:02;;;;;;;59.87;4.70;;;;;;;;;;5074462;28;20455;-66
2023/02/21 11:30:30;;;;;;;61.17;4.23;;;;;;;;;;5074006;28;20874;-65
2023/02/21 11:33:00;;;;;;;58.67;3.90;;;;;;;;;;5074348;28;20458;-64
2023/02/21 11:35:28;;;;;;;61.10;3.80;;;;;;;;;;5074209;28;20545;-64
2023/02/21 11:37:56;;;;;;;59.63;3.60;;;;;;;;;;5074154;28;20443;-64
2023/02/21 11:40:25;;;;;;;60.07;3.60;;;;;;;;;;5073640;28;20447;-64
2023/02/21 11:42:52;;;;;;;58.77;3.60;;;;;;;;;;5074159;28;20616;-64
2023/02/21 11:45:21;;;;;;;60.40;3.60;;;;;;;;;;5073831;28;20979;-64
2023/02/21 11:47:53;;;;;;;60.77;3.60;;;;;;;;;;5073924;28;20504;-64
2023/02/21 11:50:25;;;;;;;58.97;3.40;;;;;;;;;;5073540;28;20486;-66
2023/02/21 11:52:55;;;;;;;58.47;3.20;;;;;;;;;;5073807;28;20474;-66
2023/02/21 11:55:23;;;;;;;59.03;3.40;;;;;;;;;;5074095;28;20503;-67
2023/02/21 11:57:54;;;;;;;59.60;3.70;;;;;;;;;;5073702;28;20966;-66
2023/02/21 12:00:27;;;;;;;60.77;3.20;;;;;;;;;;5073415;28;20452;-63
2023/02/21 12:03:12;;;;;;;58.53;3.30;;;;;;;;;;5073758;28;20455;-63
2023/02/21 12:05:50;;;;;;;58.60;3.10;;;;;;;;;;5073493;28;20555;-65
2023/02/21 12:08:41;;;;;;;57.80;2.90;;;10.10;1.00;;;;;;5073605;28;20444;-63
2023/02/21 12:11:17;;;;;;;57.70;2.90;;;;;;;;;;5065736;28;20491;-63
2023/02/21 12:13:53;;;;;;;57.57;2.80;;;24.30;99.90;;;;;;5073399;28;20819;-65
2023/02/21 12:16:24;;;;;;;59.27;3.37;;;;;;;;;;5073453;28;20835;-67
2023/02/21 12:18:56;;;;;;;59.30;3.40;;;;;;;;;;5073110;28;20455;-65
2023/02/21 12:21:34;;;;;;;58.70;3.13;;;;;;;;;;5073322;28;20447;-65
2023/02/21 12:24:23;;;;;;;57.43;2.70;;;;;;;;;;5072984;28;20459;-65
2023/02/21 12:26:52;;;;;;;58.70;3.13;;;;;;;;;;5073047;28;20932;-65
2023/02/21 12:29:28;;;;;;;59.20;2.80;;;;;;;;;;5072859;28;20499;-65
2023/02/21 12:32:03;;;;;;;57.90;2.83;;;;;;;;;;5073068;28;20457;-65
2023/02/21 12:34:46;;;;;;;59.27;3.07;;;25.90;99.90;;;;;;5072800;28;20475;-65
2023/02/21 12:37:23;;;;;;;58.70;3.00;;;24.30;99.90;;;;;;5073173;28;20447;-65
2023/02/21 12:40:07;;;;;;;58.30;3.17;;;23.50;99.90;;;;;;5071892;28;20447;-65
2023/02/21 12:42:58;;;;;;;58.57;3.17;;;26.30;99.90;;;;;;5072794;28;20447;-63
2023/02/21 12:45:36;;;;;;;58.67;3.20;;;;;;;;;;5073174;28;20940;-65
2023/02/21 12:48:06;;;;;;;58.20;3.03;;;;;;;;;;5072899;28;20455;-67
2023/02/21 12:50:36;;;;;;;57.93;3.10;;;;;;;;;;5072939;28;20479;-66
2023/02/21 12:53:07;;;;;;;57.70;2.90;;;;;;;;;;5072688;28;20450;-66
2023/02/21 12:55:35;;;;;;;58.83;3.30;;;;;;;;;;5072585;28;21008;-66
2023/02/21 12:58:04;;;;;;;57.70;2.97;;;;;;;;;;5072813;28;20457;-66
2023/02/21 13:00:36;;;;;;;58.40;3.20;;;26.20;99.90;;;;;;5072324;28;20816;-66
2023/02/21 13:03:09;;;;;;;56.77;2.30;;;24.20;99.90;;;;;;5072763;28;20535;-66
2023/02/21 13:05:39;;;;;;;57.20;2.73;;;;;;;;;;5072597;28;20463;-67
2023/02/21 13:08:15;;;;;;;58.37;2.60;;;;;;;;;;5072670;28;20444;-66
2023/02/21 13:10:51;;;;;;;58.90;2.80;;;24.70;99.90;;;;;;5072054;28;21006;-66
2023/02/21 13:13:21;;;;;;;57.20;2.70;;;;;;;;;;5072392;28;20947;-67
2023/02/21 13:15:52;;;;;;;58.07;2.60;;;;;;;;;;5072850;28;20487;-67
2023/02/21 13:18:22;;;;;;;58.00;2.57;;;;;;;;;;5072049;28;20470;-67
2023/02/21 13:20:53;;;;;;;60.60;2.87;;;;;;;;;;5072041;28;20451;-64
2023/02/21 13:26:51;;;;;;;57.00;2.23;;;;;;;;;;5072126;28;20399;-67
2023/02/21 13:29:20;;;;;;;57.77;2.30;;;;;;;;;;5071737;28;20486;-67
2023/02/21 13:31:59;;;;;;;58.00;2.37;;;;;;;;;;5071847;28;20563;-67
2023/02/21 13:34:29;;;;;;;57.20;2.50;;;24.60;99.90;;;;;;5071810;28;20510;-65
2023/02/21 13:37:00;;;;;;;56.80;2.67;;;;;;;;;;5071704;28;20447;-64
2023/02/21 13:39:30;;;;;;;56.80;2.30;;;;;;;;;;5071924;28;20550;-67
2023/02/21 13:42:03;;;;;;;58.80;2.50;;;;;;;;;;5072197;28;20447;-67
2023/02/21 13:44:31;;;;;;;56.80;2.30;;;;;;;;;;5071743;28;20554;-66
2023/02/21 13:47:04;;;;;;;56.83;2.70;;;;;;;;;;5071911;28;20444;-66
2023/02/21 13:49:47;;;;;;;57.20;2.50;;;;;;;;;;5071406;28;20447;-66
2023/02/21 13:52:28;;;;;;;56.60;2.60;;;;;;;;;;5071774;28;20538;-66
2023/02/21 13:55:26;;;;;;;57.63;2.50;;;;;;;;;;5071567;28;20467;-66
2023/02/21 13:58:30;;;;;;;56.73;2.60;;;28.90;99.90;;;;;;5009572;28;20839;-66
2023/02/21 14:00:57;;;;;;;56.50;2.77;;;;;;;;;;5071573;28;21001;-66
2023/02/21 14:03:32;;;;;;;56.90;2.93;;;;;;;;;;5071757;28;20446;-66
2023/02/21 14:06:20;;;;;;;57.60;2.80;;;;;;;;;;5071513;28;20468;-66
2023/02/21 14:08:48;;;;;;;57.27;2.20;;;28.70;99.90;;;;;;5066506;28;20986;-66
2023/02/21 14:11:17;;;;;;;57.00;2.40;;;;;;;;;;5071544;28;20489;-64
2023/02/21 14:13:47;;;;;;;57.87;2.50;;;;;;;;;;5071443;28;20461;-66
2023/02/21 14:16:19;;;;;;;57.37;2.57;;;;;;;;;;5071328;28;20546;-66
2023/02/21 14:18:49;;;;;;;57.00;2.40;;;;;;;;;;5071044;28;20454;-66
2023/02/21 14:21:18;;;;;;;58.07;2.77;;;;;;;;;;5071527;28;20475;-66
2023/02/21 14:23:48;;;;;;;57.70;2.40;;;;;;;;;;5071828;28;20460;-65
2023/02/21 14:26:30;;;;;;;58.80;2.67;;;;;;;;;;5071927;28;20464;-65
2023/02/21 14:29:10;;;;;;;57.10;2.87;;;;;;;;;;5070901;28;20453;-66
2023/02/21 14:31:50;;;;;;;56.73;2.87;;;;;;;;;;5071743;28;20815;-66
2023/02/21 14:34:21;;;;;;;57.17;3.30;;;;;;;;;;5071750;28;20451;-66
2023/02/21 14:36:49;;;;;;;56.87;2.63;;;;;;;;;;5071800;28;20527;-66
2023/02/21 14:39:17;;;;;;;56.90;2.50;;;;;;;;;;5071441;28;20443;-66
2023/02/21 14:41:51;;;;;;;57.13;2.40;;;;;;;;;;5071172;28;20478;-66
2023/02/21 14:44:25;;;;;;;61.43;3.53;;;;;;;;;;5071313;28;20443;-67
2023/02/21 14:47:11;;;;;;;57.57;2.77;;;;;;;;;;5071377;28;20466;-67
2023/02/21 14:50:02;;;;;;;59.27;2.40;;;;;;;;;;5070837;28;20440;-68
2023/02/21 14:52:37;;;;;;;57.20;2.97;;;;;;;;;;5071382;28;20625;-68
2023/02/21 14:55:25;;;;;;;56.57;2.33;;;;;;;;;;5071150;28;20470;-65
2023/02/21 14:58:07;;;;;;;59.10;2.43;;;;;;;;;;5045580;28;20456;-65
2023/02/21 15:00:40;;;;;;;56.80;2.63;;;;;;;;;;5058250;28;20486;-65
2023/02/21 15:03:10;;;;;;;58.07;2.73;;;;;;;;;;5072832;28;20815;-66
2023/02/21 15:05:41;;;;;;;56.90;2.50;;;;;;;;;;5075106;28;20470;-66
2023/02/21 15:08:10;;;;;;;56.73;2.37;;;;;;;;;;5074749;28;20465;-66
2023/02/21 15:10:41;;;;;;;57.20;2.57;;;25.00;99.90;;;;;;5074241;28;20447;-66
2023/02/21 15:13:21;;;;;;;60.10;3.60;;;;;;;;;;5074732;28;20459;-64
2023/02/21 15:15:55;;;;;;;59.43;3.37;;;;;;;;;;5074713;28;20467;-65
2023/02/21 15:18:25;;;;;;;58.53;3.30;;;27.40;99.90;;;;;;5074636;28;20450;-65
2023/02/21 15:21:02;;;;;;;59.40;5.30;;;;;;;;;;5074180;28;20581;-67
2023/02/21 15:23:30;;;;;;;59.70;4.33;;;;;;;;;;5074570;28;20837;-67
2023/02/21 15:25:58;;;;;;;60.43;4.13;;;;;;;;;;5074479;28;20532;-68
2023/02/21 15:28:26;;;;;;;59.80;3.80;;;;;;;;;;5074269;28;20458;-65
2023/02/21 15:31:00;;;;;;;62.53;3.87;;;;;;;;;;5074133;28;20534;-68
2023/02/21 15:33:28;;;;;;;59.00;3.50;;;;;;;;;;5074189;28;20483;-68
2023/02/21 15:35:59;;;;;;;61.13;4.50;;;;;;;;;;5074463;28;20475;-67
2023/02/21 15:38:29;;;;;;;59.37;4.03;;;;;;;;;;5074322;28;20456;-67
2023/02/21 15:40:57;;;;;;;59.30;4.10;;;;;;;;;;5074266;28;20482;-67
2023/02/21 15:43:31;;;;;;;60.67;4.30;;;;;;;;;;5074201;28;20439;-67
2023/02/21 15:46:01;;;;;;;61.80;4.37;;;29.60;99.90;;;;;;5074128;28;20466;-65
2023/02/21 15:48:29;;;;;;;60.10;4.80;;;;;;;;;;5074198;28;20447;-67
2023/02/21 15:51:01;;;;;;;61.73;4.10;;;24.60;99.90;;;;;;5074026;28;20446;-68
2023/02/21 15:53:28;;;;;;;60.43;4.03;;;23.80;99.90;;;;;;5073984;28;20459;-67
2023/02/21 15:56:15;;;;;;;60.30;4.13;;;;;;;;;;5073908;28;20471;-65
2023/02/21 15:58:42;;;;;;;61.60;4.83;;;;;;;;;;5073193;28;20530;-65
2023/02/21 16:01:11;;;;;;;60.03;4.30;;;24.60;99.90;;;;;;5073809;28;20997;-65
2023/02/21 16:03:40;;;;;;;61.20;4.50;;;20.50;99.90;;;;;;5073895;28;20830;-65